Time;durP1;ratioP1;P1;durP2;ratioP2;P2;SDS_P1;SDS_P2;PMS_P1;PMS_P2;Temp;Humidity;BMP_temperature;BMP_pressure;BME280_temperature;BME280_humidity;BME280_pressure;Samples;Min_cycle;Max_cycle;Signal;HPM_P1;HPM_P2
2023/04/14 00:02:19;;;;;;;;;;;5.10;69.10;;;;;;4076929;29;20337;-87
2023/04/14 00:04:42;;;;;;;;;;;5.20;69.10;;;;;;4077379;29;20001;-87
2023/04/14 00:07:03;;;;;;;;;;;5.20;69.20;;;;;;4089721;28;20374;-89
2023/04/14 00:09:26;;;;;;;;;;;5.10;69.10;;;;;;4076565;29;20488;-87
2023/04/14 00:11:53;;;;;;;;;;;5.00;69.00;;;;;;4081209;29;20380;-90
2023/04/14 00:14:14;;;;;;;;;;;5.00;69.10;;;;;;4078312;29;20377;-88
2023/04/14 00:16:15;;;;;;;;;;;5.10;69.30;;;;;;4076227;29;19966;-86
2023/04/14 00:18:15;;;;;;;;;;;5.10;69.30;;;;;;4074383;29;20011;-87
2023/04/14 00:20:16;;;;;;;;;;;5.10;69.30;;;;;;4075051;29;19914;-87
2023/04/14 00:22:20;;;;;;;;;;;5.00;69.20;;;;;;4063643;29;19920;-88
2023/04/14 00:24:21;;;;;;;;;;;5.00;69.20;;;;;;4102336;28;19918;-87
2023/04/14 00:26:22;;;;;;;;;;;4.90;69.30;;;;;;4098350;28;20058;-88
2023/04/14 00:28:27;;;;;;;;;;;5.00;69.30;;;;;;4071650;29;19911;-87
2023/04/14 00:30:28;;;;;;;;;;;5.00;69.40;;;;;;4088180;29;19921;-90
2023/04/14 00:32:29;;;;;;;;;;;5.00;69.50;;;;;;4079572;29;19918;-87
2023/04/14 00:34:29;;;;;;;;;;;5.00;69.50;;;;;;4076318;29;19955;-86
2023/04/14 00:36:31;;;;;;;;;;;5.00;69.50;;;;;;4074081;29;20509;-86
2023/04/14 00:38:31;;;;;;;;;;;5.00;69.60;;;;;;4059462;29;20464;-86
2023/04/14 00:40:32;;;;;;;;;;;4.80;69.60;;;;;;4091191;29;19919;-86
2023/04/14 00:42:53;;;;;;;;;;;4.90;69.60;;;;;;4084742;29;19937;-88
2023/04/14 00:45:13;;;;;;;;;;;4.80;69.60;;;;;;4077263;29;19926;-87
2023/04/14 00:47:35;;;;;;;;;;;4.90;69.80;;;;;;4074552;29;20305;-87
2023/04/14 00:49:36;;;;;;;;;;;4.90;69.70;;;;;;4058532;29;20346;-86
2023/04/14 00:54:06;;;;;;;;;;;4.80;69.70;;;;;;4083465;23;19926;-86
2023/04/14 00:56:07;;;;;;;;;;;4.80;69.80;;;;;;4062276;29;19915;-86
2023/04/14 00:58:19;;;;;;;;;;;4.80;69.80;;;;;;4072169;29;19918;-90
2023/04/14 01:00:40;;;;;;;;;;;4.80;69.90;;;;;;4056717;29;20358;-87
2023/04/14 01:03:01;;;;;;;;;;;4.90;70.00;;;;;;4073667;29;20437;-86
2023/04/14 01:05:02;;;;;;;;;;;4.80;70.10;;;;;;4058884;29;19918;-86
2023/04/14 01:07:02;;;;;;;;;;;4.80;70.10;;;;;;4073547;29;19923;-86
2023/04/14 01:09:03;;;;;;;;;;;4.80;70.10;;;;;;4061656;29;19923;-86
2023/04/14 01:11:30;;;;;;;;;;;4.80;70.20;;;;;;4061356;29;20349;-88
2023/04/14 01:13:50;;;;;;;;;;;4.80;70.10;;;;;;4062995;29;20047;-88
2023/04/14 01:16:20;;;;;;;;;;;4.80;70.10;;;;;;4083780;29;19918;-87
2023/04/14 01:19:08;;;;;;;;;;;4.80;70.10;;;;;;4073779;29;20351;-86
2023/04/14 01:21:31;;;;;;;;;;;4.70;70.10;;;;;;4067813;29;20022;-88
2023/04/14 01:24:01;;;;;;;;;;;4.80;70.20;;;;;;4079671;29;19919;-89
2023/04/14 01:26:23;;;;;;;;;;;4.70;70.30;;;;;;4078054;29;20301;-86
2023/04/14 01:28:40;;;;;;;;;;;4.70;70.40;;;;;;4064472;29;19993;-86
2023/04/14 01:31:20;;;;;;;;;;;4.70;71.00;;;;;;4077323;29;19910;-86
2023/04/14 01:33:45;;;;;;;;;;;4.60;70.10;;;;;;4065328;29;20617;-87
2023/04/14 01:36:09;;;;;;;;;;;4.60;70.00;;;;;;4072978;29;20033;-87
2023/04/14 01:38:31;;;;;;;;;;;4.50;69.80;;;;;;4075844;29;20610;-87
2023/04/14 01:40:49;;;;;;;;;;;4.50;69.80;;;;;;4076530;29;19997;-86
2023/04/14 01:43:10;;;;;;;;;;;4.60;69.80;;;;;;4066206;29;21327;-87
2023/04/14 01:45:33;;;;;;;;;;;4.60;70.10;;;;;;4076170;29;20278;-86
2023/04/14 01:47:53;;;;;;;;;;;4.50;70.30;;;;;;4078332;29;20588;-87
2023/04/14 01:49:59;;;;;;;;;;;4.40;70.30;;;;;;4078837;29;19962;-90
2023/04/14 01:52:19;;;;;;;;;;;4.40;70.20;;;;;;4064574;29;19910;-87
2023/04/14 01:58:10;;;;;;;;;;;;;;;;;;;;;
2023/04/14 02:00:31;;;;;;;;;;;4.30;70.00;;;;;;4067743;29;20399;-86
2023/04/14 02:02:52;;;;;;;;;;;4.30;70.80;;;;;;4061492;29;19923;-87
2023/04/14 02:05:14;;;;;;;;;;;4.30;70.00;;;;;;4064597;29;20586;-86
2023/04/14 02:07:35;;;;;;;;;;;4.20;70.00;;;;;;4078523;29;20302;-86
2023/04/14 02:09:57;;;;;;;;;;;4.20;70.00;;;;;;4065660;29;19922;-86
2023/04/14 02:11:59;;;;;;;;;;;4.20;69.90;;;;;;4061503;29;19911;-88
2023/04/14 02:14:21;;;;;;;;;;;4.20;69.80;;;;;;4064972;29;20364;-87
2023/04/14 02:16:45;;;;;;;;;;;4.10;69.80;;;;;;4069134;29;19992;-86
2023/04/14 02:19:05;;;;;;;;;;;4.00;69.70;;;;;;4065279;29;19918;-86
2023/04/14 02:21:27;;;;;;;;;;;4.10;69.80;;;;;;4061725;29;20005;-90
2023/04/14 02:23:48;;;;;;;;;;;4.10;69.70;;;;;;4063219;29;20326;-86
2023/04/14 02:26:12;;;;;;;;;;;4.00;69.90;;;;;;4063881;29;20418;-86
2023/04/14 02:28:19;;;;;;;;;;;4.00;69.90;;;;;;4077971;29;19923;-90
2023/04/14 02:30:26;;;;;;;;;;;3.90;69.90;;;;;;4082098;29;19916;-90
2023/04/14 02:32:28;;;;;;;;;;;3.90;69.90;;;;;;4067481;29;19970;-88
2023/04/14 02:34:33;;;;;;;;;;;3.90;70.80;;;;;;4063298;29;20401;-87
2023/04/14 02:36:38;;;;;;;;;;;3.90;70.10;;;;;;4074004;29;19938;-86
2023/04/14 02:38:44;;;;;;;;;;;3.90;70.10;;;;;;4048900;29;19920;-88
2023/04/14 02:40:45;;;;;;;;;;;3.80;70.10;;;;;;4061976;29;20490;-87
2023/04/14 02:42:49;;;;;;;;;;;3.80;70.10;;;;;;4065658;29;19930;-87
2023/04/14 02:44:55;;;;;;;;;;;3.70;70.00;;;;;;4079288;29;19915;-86
2023/04/14 02:47:02;;;;;;;;;;;3.70;69.80;;;;;;4067227;29;19922;-86
2023/04/14 02:49:05;;;;;;;;;;;3.70;69.90;;;;;;4062892;29;20369;-86
2023/04/14 02:51:08;;;;;;;;;;;3.60;69.70;;;;;;4057347;29;20375;-86
2023/04/14 02:53:09;;;;;;;;;;;3.50;69.70;;;;;;4054669;29;20826;-86
2023/04/14 02:55:10;;;;;;;;;;;3.50;69.80;;;;;;4060461;29;19916;-89
2023/04/14 02:57:12;;;;;;;;;;;3.40;69.80;;;;;;4056876;29;20037;-86
2023/04/14 02:59:13;;;;;;;;;;;3.40;69.80;;;;;;4074665;29;19946;-87
2023/04/14 03:01:17;;;;;;;;;;;3.50;69.90;;;;;;4060260;29;19921;-86
2023/04/14 03:03:25;;;;;;;;;;;3.40;69.70;;;;;;4043696;29;20442;-87
2023/04/14 03:05:47;;;;;;;;;;;3.50;69.90;;;;;;4060981;29;20301;-87
2023/04/14 03:08:13;;;;;;;;;;;3.40;69.90;;;;;;4072940;29;20219;-86
2023/04/14 03:10:34;;;;;;;;;;;3.40;69.90;;;;;;4057211;29;20362;-86
2023/04/14 03:12:36;;;;;;;;;;;3.40;70.00;;;;;;4059903;29;19922;-87
2023/04/14 03:15:01;;;;;;;;;;;3.30;70.00;;;;;;4059151;29;19946;-87
2023/04/14 03:17:21;;;;;;;;;;;3.20;69.80;;;;;;4062897;29;20317;-89
2023/04/14 03:19:45;;;;;;;;;;;3.20;70.00;;;;;;4060051;29;19922;-87
2023/04/14 03:22:09;;;;;;;;;;;3.20;69.90;;;;;;4061200;29;20420;-87
2023/04/14 03:24:35;;;;;;;;;;;3.20;70.00;;;;;;4059233;29;20681;-87
2023/04/14 03:27:04;;;;;;;;;;;3.10;69.90;;;;;;4072409;29;19915;-87
2023/04/14 03:29:26;;;;;;;;;;;3.20;69.90;;;;;;4081263;28;20312;-87
2023/04/14 03:31:46;;;;;;;;;;;3.10;70.00;;;;;;4061562;29;19911;-87
2023/04/14 03:34:10;;;;;;;;;;;3.10;70.00;;;;;;4062475;29;19934;-87
2023/04/14 03:36:34;;;;;;;;;;;3.00;70.00;;;;;;4060725;29;19919;-87
2023/04/14 03:38:58;;;;;;;;;;;3.10;70.10;;;;;;4059082;29;19915;-87
2023/04/14 03:41:23;;;;;;;;;;;3.10;70.20;;;;;;4062534;29;19926;-86
2023/04/14 03:43:44;;;;;;;;;;;3.10;70.20;;;;;;4062961;29;19922;-87
2023/04/14 03:46:05;;;;;;;;;;;2.90;70.10;;;;;;4069979;29;19915;-87
2023/04/14 03:48:28;;;;;;;;;;;3.00;70.10;;;;;;4063770;29;19923;-87
2023/04/14 03:50:50;;;;;;;;;;;2.90;70.10;;;;;;4061695;29;19965;-89
2023/04/14 03:53:16;;;;;;;;;;;2.90;70.00;;;;;;4063939;29;20005;-87
2023/04/14 03:55:45;;;;;;;;;;;2.90;70.00;;;;;;4070910;29;19945;-87
2023/04/14 03:58:07;;;;;;;;;;;2.90;70.10;;;;;;4066067;29;19914;-88
2023/04/14 04:00:28;;;;;;;;;;;2.90;70.10;;;;;;4063740;29;20381;-88
2023/04/14 04:02:29;;;;;;;;;;;2.80;70.20;;;;;;4072496;29;19999;-86
2023/04/14 04:04:30;;;;;;;;;;;2.80;70.20;;;;;;4073441;29;19921;-88
2023/04/14 04:06:42;;;;;;;;;;;;;;;;;;;;;
2023/04/14 04:08:46;;;;;;;;;;;2.70;70.10;;;;;;4069225;29;20400;-86
2023/04/14 04:10:47;;;;;;;;;;;2.80;70.10;;;;;;4065955;29;19945;-86
2023/04/14 04:12:48;;;;;;;;;;;2.60;69.90;;;;;;4065353;29;20115;-86
2023/04/14 04:14:50;;;;;;;;;;;2.60;70.00;;;;;;4064134;29;20061;-87
2023/04/14 04:16:53;;;;;;;;;;;2.60;70.00;;;;;;4074679;29;20105;-86
2023/04/14 04:18:54;;;;;;;;;;;2.60;69.90;;;;;;4073408;29;19910;-86
2023/04/14 04:20:56;;;;;;;;;;;2.60;69.90;;;;;;4062729;29;19934;-88
2023/04/14 04:23:00;;;;;;;;;;;2.60;70.00;;;;;;4062077;29;19911;-86
2023/04/14 04:25:01;;;;;;;;;;;2.60;70.00;;;;;;4063450;29;19915;-86
2023/04/14 04:27:21;;;;;;;;;;;2.60;70.10;;;;;;4061744;29;19966;-89
2023/04/14 04:29:42;;;;;;;;;;;2.50;70.10;;;;;;4078097;29;19970;-86
2023/04/14 04:31:43;;;;;;;;;;;2.60;70.20;;;;;;4059931;29;20013;-87
2023/04/14 04:34:04;;;;;;;;;;;2.60;70.30;;;;;;4064132;29;19919;-86
2023/04/14 04:36:26;;;;;;;;;;;2.50;70.20;;;;;;4064622;29;19979;-87
2023/04/14 04:38:41;;;;;;;;;;;2.50;70.30;;;;;;4047040;29;19912;-86
2023/04/14 04:41:02;;;;;;;;;;;2.50;70.30;;;;;;4062458;29;20399;-86
2023/04/14 04:43:22;;;;;;;;;;;2.50;70.40;;;;;;4065410;29;19994;-87
2023/04/14 04:45:49;;;;;;;;;;;2.50;70.40;;;;;;4070696;29;19915;-86
2023/04/14 04:48:09;;;;;;;;;;;2.40;70.30;;;;;;4076626;29;19949;-86
2023/04/14 04:50:32;;;;;;;;;;;2.50;70.50;;;;;;4066902;29;19923;-86
2023/04/14 04:52:53;;;;;;;;;;;2.40;70.40;;;;;;4064673;29;19938;-87
2023/04/14 04:55:14;;;;;;;;;;;2.40;71.20;;;;;;4064221;29;19962;-86
2023/04/14 04:57:37;;;;;;;;;;;2.40;70.50;;;;;;4066532;29;19915;-86
2023/04/14 04:59:58;;;;;;;;;;;2.40;70.60;;;;;;4064945;29;20007;-86
2023/04/14 05:02:26;;;;;;;;;;;2.30;70.60;;;;;;4065399;29;19911;-86
2023/04/14 05:04:56;;;;;;;;;;;2.30;70.60;;;;;;4065579;29;19918;-86
2023/04/14 05:07:16;;;;;;;;;;;2.40;70.60;;;;;;4060463;29;20326;-86
2023/04/14 05:09:37;;;;;;;;;;;2.40;70.70;;;;;;4076939;29;19911;-86
2023/04/14 05:12:01;;;;;;;;;;;2.40;70.80;;;;;;4067820;29;19933;-88
2023/04/14 05:14:02;;;;;;;;;;;2.30;70.90;;;;;;4085467;29;20618;-88
2023/04/14 05:16:06;;;;;;;;;;;2.40;71.10;;;;;;4065809;29;20452;-87
2023/04/14 05:18:07;;;;;;;;;;;2.30;71.10;;;;;;4068121;29;19911;-86
2023/04/14 05:20:08;;;;;;;;;;;2.40;71.20;;;;;;4065038;29;20029;-86
2023/04/14 05:22:08;;;;;;;;;;;2.30;71.20;;;;;;4069540;29;19934;-88
2023/04/14 05:24:18;;;;;;;;;;;2.40;71.30;;;;;;4064015;29;20389;-86
2023/04/14 05:26:30;;;;;;;;;;;2.30;71.20;;;;;;4064399;29;19926;-87
2023/04/14 05:28:47;;;;;;;;;;;2.40;71.20;;;;;;4063521;29;19923;-86
2023/04/14 05:30:53;;;;;;;;;;;2.40;71.20;;;;;;4074092;29;19918;-87
2023/04/14 05:33:03;;;;;;;;;;;2.40;71.10;;;;;;4078438;29;20190;-87
2023/04/14 05:35:04;;;;;;;;;;;2.50;71.20;;;;;;4064152;29;19926;-86
2023/04/14 05:37:07;;;;;;;;;;;2.40;72.00;;;;;;4052105;29;19919;-87
2023/04/14 05:39:08;;;;;;;;;;;2.40;71.70;;;;;;4079462;29;19922;-86
2023/04/14 05:41:28;;;;;;;;;;;2.60;71.50;;;;;;4072003;29;19914;-86
2023/04/14 05:43:29;;;;;;;;;;;2.60;71.70;;;;;;4077856;29;20017;-86
2023/04/14 05:45:52;;;;;;;;;;;2.70;71.60;;;;;;4071688;29;20065;-88
2023/04/14 05:48:21;;;;;;;;;;;2.70;71.80;;;;;;4067936;29;19919;-89
2023/04/14 05:50:42;;;;;;;;;;;2.80;72.10;;;;;;4072725;29;19926;-86
2023/04/14 05:53:02;;;;;;;;;;;2.80;72.50;;;;;;4064722;29;19965;-87
2023/04/14 05:55:26;;;;;;;;;;;2.90;72.90;;;;;;4073458;29;19930;-86
2023/04/14 05:57:47;;;;;;;;;;;2.90;73.10;;;;;;4065096;29;19918;-87
2023/04/14 06:00:15;;;;;;;;;;;3.00;73.60;;;;;;4067404;29;21105;-87
2023/04/14 06:02:48;;;;;;;;;;;3.10;73.90;;;;;;4070317;29;20009;-86
2023/04/14 06:04:50;;;;;;;;;;;3.20;74.20;;;;;;4074033;29;19915;-89
2023/04/14 06:06:51;;;;;;;;;;;3.40;74.70;;;;;;4085185;28;19911;-89
2023/04/14 06:08:52;;;;;;;;;;;3.40;75.10;;;;;;4064340;29;19930;-86
2023/04/14 06:10:52;;;;;;;;;;;3.60;75.50;;;;;;4068156;29;20121;-88
2023/04/14 06:12:53;;;;;;;;;;;3.70;75.50;;;;;;4052034;29;20025;-89
2023/04/14 06:14:55;;;;;;;;;;;3.80;75.60;;;;;;4066580;29;19919;-87
2023/04/14 06:16:56;;;;;;;;;;;3.80;75.70;;;;;;4078600;29;19970;-89
2023/04/14 06:19:17;;;;;;;;;;;4.00;76.00;;;;;;4060667;29;19970;-86
2023/04/14 06:21:40;;;;;;;;;;;4.20;77.20;;;;;;4066257;29;19915;-87
2023/04/14 06:24:01;;;;;;;;;;;4.20;76.80;;;;;;4064434;29;19938;-86
2023/04/14 06:26:21;;;;;;;;;;;4.30;76.90;;;;;;4062356;29;19933;-86
2023/04/14 06:28:42;;;;;;;;;;;4.50;76.80;;;;;;4063314;29;19919;-87
2023/04/14 06:31:02;;;;;;;;;;;4.50;76.80;;;;;;4065511;29;19911;-87
2023/04/14 06:33:39;;;;;;;;;;;4.70;77.10;;;;;;4057929;29;20388;-87
2023/04/14 06:36:20;;;;;;;;;;;4.70;77.80;;;;;;4062032;29;20550;-86
2023/04/14 06:38:41;;;;;;;;;;;5.00;77.70;;;;;;4067089;29;19917;-87
2023/04/14 06:41:01;;;;;;;;;;;5.10;77.40;;;;;;4063586;29;19921;-86
2023/04/14 06:43:22;;;;;;;;;;;5.20;77.60;;;;;;4062277;29;20017;-85
2023/04/14 06:45:43;;;;;;;;;;;5.20;77.40;;;;;;4061096;29;19961;-87
2023/04/14 06:48:03;;;;;;;;;;;5.40;77.30;;;;;;4065093;29;19958;-88
2023/04/14 06:50:12;;;;;;;;;;;5.40;77.30;;;;;;4068881;29;19957;-88
2023/04/14 06:52:32;;;;;;;;;;;5.50;77.30;;;;;;4066379;29;19966;-87
2023/04/14 06:54:53;;;;;;;;;;;5.70;77.50;;;;;;4064375;29;19919;-86
2023/04/14 06:57:25;;;;;;;;;;;5.80;77.40;;;;;;4064857;29;19925;-88
2023/04/14 06:59:51;;;;;;;;;;;5.90;77.50;;;;;;4063487;29;19917;-86
2023/04/14 07:02:12;;;;;;;;;;;6.00;77.60;;;;;;4068641;29;19911;-86
2023/04/14 07:04:39;;;;;;;;;;;6.20;77.70;;;;;;4059191;29;19946;-86
2023/04/14 07:07:23;;;;;;;;;;;6.20;77.90;;;;;;4063800;29;19934;-88
2023/04/14 07:09:44;;;;;;;;;;;6.40;77.90;;;;;;4061600;29;20033;-87
2023/04/14 07:12:11;;;;;;;;;;;6.60;77.10;;;;;;4050248;29;20041;-87
2023/04/14 07:14:41;;;;;;;;;;;6.60;77.60;;;;;;4061825;29;19915;-87
2023/04/14 07:17:02;;;;;;;;;;;6.70;78.10;;;;;;4060875;29;20119;-89
2023/04/14 07:19:42;;;;;;;;;;;6.90;78.90;;;;;;4060951;29;20169;-87
2023/04/14 07:22:18;;;;;;;;;;;7.10;79.00;;;;;;4056716;29;19997;-87
2023/04/14 07:24:19;;;;;;;;;;;7.20;79.10;;;;;;4062288;29;19930;-87
2023/04/14 07:29:32;;;;;;;;;;;7.40;78.50;;;;;;4068215;29;19945;-86
2023/04/14 07:32:12;;;;;;;;;;;;;;;;;;;;;
2023/04/14 07:34:22;;;;;;;;;;;7.70;79.60;;;;;;4077575;29;19926;-90
2023/04/14 07:36:22;;;;;;;;;;;7.90;79.40;;;;;;4048478;29;20330;-86
2023/04/14 07:38:25;;;;;;;;;;;8.10;79.90;;;;;;4060609;29;20664;-88
2023/04/14 07:40:25;;;;;;;;;;;8.10;79.20;;;;;;4067855;29;19918;-88
2023/04/14 07:42:27;;;;;;;;;;;8.20;78.60;;;;;;4065722;29;19929;-88
2023/04/14 07:44:32;;;;;;;;;;;8.30;78.90;;;;;;4058275;29;19915;-86
2023/04/14 07:46:43;;;;;;;;;;;8.30;78.70;;;;;;4066451;29;19922;-86
2023/04/14 07:48:43;;;;;;;;;;;8.40;79.00;;;;;;4063456;29;19915;-89
2023/04/14 07:50:58;;;;;;;;;;;8.50;79.00;;;;;;4079337;29;20326;-86
2023/04/14 07:52:59;;;;;;;;;;;8.50;78.30;;;;;;4063571;29;19911;-86
2023/04/14 07:55:01;;;;;;;;;;;8.50;77.60;;;;;;4048815;29;19915;-87
2023/04/14 07:57:04;;;;;;;;;;;8.70;77.10;;;;;;4051491;29;19936;-86
2023/04/14 07:59:06;;;;;;;;;;;8.80;76.90;;;;;;4071878;29;19922;-88
2023/04/14 08:01:18;;;;;;;;;;;8.70;76.70;;;;;;4077410;29;19911;-87
2023/04/14 08:03:39;;;;;;;;;;;8.90;76.70;;;;;;4081845;29;19966;-89
2023/04/14 08:06:00;;;;;;;;;;;8.90;76.20;;;;;;4074190;29;19921;-87
2023/04/14 08:08:24;;;;;;;;;;;9.00;76.10;;;;;;4059380;29;19915;-89
2023/04/14 08:10:48;;;;;;;;;;;9.00;75.20;;;;;;4080011;29;19926;-87
2023/04/14 08:13:09;;;;;;;;;;;9.00;74.60;;;;;;4067444;29;20034;-88
2023/04/14 08:15:31;;;;;;;;;;;9.10;74.70;;;;;;4058908;29;20003;-88
2023/04/14 08:18:09;;;;;;;;;;;9.10;74.70;;;;;;4069089;29;19907;-87
2023/04/14 08:20:51;;;;;;;;;;;9.20;74.70;;;;;;4067469;29;19943;-87
2023/04/14 08:23:20;;;;;;;;;;;9.20;74.50;;;;;;4061148;29;20010;-88
2023/04/14 08:25:41;;;;;;;;;;;9.30;74.50;;;;;;4059064;29;19919;-88
2023/04/14 08:28:02;;;;;;;;;;;9.30;74.50;;;;;;4061992;29;19923;-86
2023/04/14 08:30:38;;;;;;;;;;;9.40;74.20;;;;;;4056503;29;19919;-89
2023/04/14 08:33:00;;;;;;;;;;;9.40;73.60;;;;;;4067821;29;19919;-87
2023/04/14 08:35:07;;;;;;;;;;;9.40;73.20;;;;;;4057983;29;19975;-87
2023/04/14 08:37:08;;;;;;;;;;;9.50;73.20;;;;;;4058619;29;20679;-87
2023/04/14 08:39:08;;;;;;;;;;;9.50;73.30;;;;;;4058566;29;19915;-87
2023/04/14 08:41:11;;;;;;;;;;;9.70;73.40;;;;;;4056154;29;21623;-88
2023/04/14 08:43:20;;;;;;;;;;;9.60;73.10;;;;;;4059226;29;20164;-87
2023/04/14 08:45:24;;;;;;;;;;;9.70;73.10;;;;;;4067192;29;19961;-88
2023/04/14 08:50:11;;;;;;;;;;;9.80;72.10;;;;;;4026452;29;19931;-88
2023/04/14 08:52:18;;;;;;;;;;;9.90;72.00;;;;;;4031840;29;19940;-87
2023/04/14 08:54:22;;;;;;;;;;;10.00;71.70;;;;;;4015327;29;20568;-88
2023/04/14 08:56:23;;;;;;;;;;;10.00;71.30;;;;;;4027178;29;19963;-87
2023/04/14 08:58:33;;;;;;;;;;;10.00;70.30;;;;;;4029915;29;19998;-88
2023/04/14 09:00:38;;;;;;;;;;;10.10;70.50;;;;;;4037763;29;19915;-89
2023/04/14 09:03:05;;;;;;;;;;;10.20;69.50;;;;;;4029708;29;19930;-88
2023/04/14 09:05:10;;;;;;;;;;;10.30;69.80;;;;;;4031324;29;20064;-88
2023/04/14 09:07:33;;;;;;;;;;;10.20;68.00;;;;;;4042446;29;19926;-88
2023/04/14 09:09:59;;;;;;;;;;;10.40;67.50;;;;;;4036798;29;19915;-87
2023/04/14 09:12:21;;;;;;;;;;;10.30;67.60;;;;;;4036079;29;19920;-88
2023/04/14 09:14:22;;;;;;;;;;;10.40;67.50;;;;;;4032073;29;19912;-87
2023/04/14 09:16:43;;;;;;;;;;;10.40;67.90;;;;;;4047235;29;19940;-87
2023/04/14 09:19:07;;;;;;;;;;;10.40;66.20;;;;;;4038031;29;19919;-87
2023/04/14 09:21:28;;;;;;;;;;;10.40;65.50;;;;;;4029916;29;19923;-88
2023/04/14 09:23:49;;;;;;;;;;;10.40;64.50;;;;;;4031387;29;19994;-87
2023/04/14 09:26:10;;;;;;;;;;;10.50;64.90;;;;;;4036860;29;19916;-88
2023/04/14 09:28:31;;;;;;;;;;;10.50;64.20;;;;;;4065588;29;19983;-88
2023/04/14 09:30:52;;;;;;;;;;;10.40;63.10;;;;;;4066048;29;19926;-88
2023/04/14 09:33:28;;;;;;;;;;;10.50;64.00;;;;;;4067870;29;20229;-87
2023/04/14 09:35:49;;;;;;;;;;;10.50;61.50;;;;;;4065965;29;19915;-88
2023/04/14 09:38:10;;;;;;;;;;;10.50;61.60;;;;;;4060379;29;19966;-89
2023/04/14 09:40:46;;;;;;;;;;;10.60;62.20;;;;;;4058504;29;19919;-88
2023/04/14 09:43:24;;;;;;;;;;;10.60;61.90;;;;;;4064189;29;20182;-88
2023/04/14 09:45:44;;;;;;;;;;;10.60;62.70;;;;;;4066126;29;20018;-88
2023/04/14 09:50:55;;;;;;;;;;;10.70;60.10;;;;;;4065389;29;19915;-87
2023/04/14 09:53:30;;;;;;;;;;;10.70;60.60;;;;;;4072733;29;19908;-87
2023/04/14 09:55:31;;;;;;;;;;;10.70;60.80;;;;;;4062813;29;19914;-89
2023/04/14 09:57:33;;;;;;;;;;;10.80;60.10;;;;;;4059077;29;19919;-87
2023/04/14 09:59:37;;;;;;;;;;;10.80;59.40;;;;;;4072774;29;19907;-87
2023/04/14 10:01:39;;;;;;;;;;;10.80;58.90;;;;;;4058299;29;19914;-90
2023/04/14 10:04:20;;;;;;;;;;;10.80;59.30;;;;;;4075106;29;20004;-90
2023/04/14 10:06:30;;;;;;;;;;;10.80;59.80;;;;;;4060792;29;20234;-87
2023/04/14 10:08:52;;;;;;;;;;;10.90;59.60;;;;;;4065962;29;19916;-89
2023/04/14 10:11:20;;;;;;;;;;;10.90;59.60;;;;;;4062314;29;19923;-88
2023/04/14 10:14:07;;;;;;;;;;;10.90;59.20;;;;;;4078357;29;19907;-88
2023/04/14 10:16:09;;;;;;;;;;;11.00;59.40;;;;;;4068507;29;19919;-87
2023/04/14 10:18:10;;;;;;;;;;;10.90;59.00;;;;;;4070317;29;19903;-88
2023/04/14 10:22:41;;;;;;;;;;;10.90;58.70;;;;;;4064114;29;19970;-89
2023/04/14 10:24:42;;;;;;;;;;;10.90;58.10;;;;;;4068314;29;19911;-88
2023/04/14 10:26:50;;;;;;;;;;;11.00;58.80;;;;;;4064630;29;19918;-87
2023/04/14 10:28:52;;;;;;;;;;;11.00;58.80;;;;;;4079511;29;19977;-87
2023/04/14 10:30:56;;;;;;;;;;;11.10;59.20;;;;;;4063962;29;20142;-87
2023/04/14 10:32:57;;;;;;;;;;;11.10;59.00;;;;;;4084738;29;19918;-88
2023/04/14 10:35:11;;;;;;;;;;;11.10;58.80;;;;;;4065830;29;20289;-88
2023/04/14 10:37:12;;;;;;;;;;;11.00;58.20;;;;;;4063614;29;19907;-87
2023/04/14 10:39:23;;;;;;;;;;;11.10;58.30;;;;;;4070016;29;19915;-87
2023/04/14 10:41:32;;;;;;;;;;;11.00;58.90;;;;;;4080022;29;20001;-88
2023/04/14 10:43:36;;;;;;;;;;;11.00;58.10;;;;;;4067997;29;19926;-89
2023/04/14 10:45:55;;;;;;;;;;;11.00;58.50;;;;;;4078577;29;19973;-87
2023/04/14 10:47:56;;;;;;;;;;;10.90;57.70;;;;;;4081593;29;19907;-89
2023/04/14 10:50:08;;;;;;;;;;;10.80;57.90;;;;;;4051762;29;19923;-91
2023/04/14 10:52:39;;;;;;;;;;;10.90;58.10;;;;;;4063913;29;19915;-87
2023/04/14 10:54:52;;;;;;;;;;;10.90;58.10;;;;;;4048662;29;19915;-86
2023/04/14 10:57:07;;;;;;;;;;;10.90;57.70;;;;;;4047049;29;20271;-87
2023/04/14 10:59:08;;;;;;;;;;;10.90;57.80;;;;;;4028728;29;19955;-87
2023/04/14 11:01:35;;;;;;;;;;;10.90;57.90;;;;;;4033972;29;20397;-88
2023/04/14 11:03:56;;;;;;;;;;;11.00;58.00;;;;;;4043163;29;19965;-89
2023/04/14 11:06:57;;;;;;;;;;;10.80;56.30;;;;;;4044762;29;19930;-87
2023/04/14 11:08:59;;;;;;;;;;;10.90;57.30;;;;;;3997140;29;19957;-88
2023/04/14 11:11:26;;;;;;;;;;;10.90;57.80;;;;;;4014177;29;19916;-89
2023/04/14 11:14:07;;;;;;;;;;;11.00;57.90;;;;;;4016216;29;19949;-88
2023/04/14 11:16:28;;;;;;;;;;;11.10;57.10;;;;;;4000919;29;20147;-87
2023/04/14 11:18:48;;;;;;;;;;;11.20;57.60;;;;;;4002171;29;20361;-87
2023/04/14 11:21:13;;;;;;;;;;;11.30;57.20;;;;;;4018254;29;19959;-87
2023/04/14 11:23:34;;;;;;;;;;;11.30;57.30;;;;;;3999982;29;19912;-87
2023/04/14 11:25:56;;;;;;;;;;;11.30;57.00;;;;;;4007057;29;20145;-88
2023/04/14 11:28:28;;;;;;;;;;;11.30;56.00;;;;;;4013131;29;20550;-87
2023/04/14 11:30:49;;;;;;;;;;;11.40;56.00;;;;;;4002395;29;19916;-87
2023/04/14 11:33:09;;;;;;;;;;;11.40;56.50;;;;;;3996390;29;19912;-87
2023/04/14 11:35:33;;;;;;;;;;;11.50;56.40;;;;;;4012705;29;19954;-88
2023/04/14 11:37:54;;;;;;;;;;;11.40;56.60;;;;;;3998244;29;20052;-87
2023/04/14 11:39:55;;;;;;;;;;;11.50;56.80;;;;;;4022312;29;19915;-87
2023/04/14 11:41:58;;;;;;;;;;;11.50;58.00;;;;;;4062645;29;19911;-86
2023/04/14 11:44:20;;;;;;;;;;;11.50;57.70;;;;;;4063641;29;19918;-87
2023/04/14 11:46:23;;;;;;;;;;;11.50;57.10;;;;;;4066755;29;19911;-87
2023/04/14 11:48:44;;;;;;;;;;;11.60;57.00;;;;;;4060846;29;19950;-86
2023/04/14 11:50:46;;;;;;;;;;;11.60;56.80;;;;;;4059358;29;20351;-88
2023/04/14 11:52:47;;;;;;;;;;;11.70;56.40;;;;;;4056474;29;20356;-89
2023/04/14 11:55:07;;;;;;;;;;;11.70;56.50;;;;;;4060767;29;19982;-92
2023/04/14 11:57:28;;;;;;;;;;;11.70;56.40;;;;;;4065303;29;19915;-86
2023/04/14 11:59:49;;;;;;;;;;;11.70;57.00;;;;;;4054604;29;19919;-87
2023/04/14 12:01:51;;;;;;;;;;;11.80;57.00;;;;;;4058819;29;19922;-89
2023/04/14 12:04:20;;;;;;;;;;;11.80;55.90;;;;;;4065433;29;20205;-87
2023/04/14 12:06:44;;;;;;;;;;;11.70;55.50;;;;;;4057099;29;19992;-88
2023/04/14 12:09:07;;;;;;;;;;;11.80;56.60;;;;;;4058063;29;20321;-85
2023/04/14 12:11:28;;;;;;;;;;;11.70;56.80;;;;;;4057116;29;19915;-88
2023/04/14 12:14:03;;;;;;;;;;;11.70;56.10;;;;;;4057959;29;19919;-90
2023/04/14 12:16:25;;;;;;;;;;;11.80;56.10;;;;;;4070336;29;20018;-88
2023/04/14 12:18:46;;;;;;;;;;;11.70;56.00;;;;;;4060853;29;19971;-89
2023/04/14 12:21:06;;;;;;;;;;;11.70;56.10;;;;;;4062855;29;19965;-88
2023/04/14 12:23:27;;;;;;;;;;;11.70;56.50;;;;;;4074362;29;20002;-88
2023/04/14 12:25:48;;;;;;;;;;;11.70;56.10;;;;;;4058913;29;20824;-87
2023/04/14 12:27:50;;;;;;;;;;;11.60;56.50;;;;;;4065554;29;19918;-88
2023/04/14 12:30:12;;;;;;;;;;;11.60;56.80;;;;;;4069195;29;19915;-88
2023/04/14 12:32:23;;;;;;;;;;;11.60;57.20;;;;;;4076597;29;19965;-88
2023/04/14 12:34:28;;;;;;;;;;;11.60;56.80;;;;;;4073919;29;19906;-88
2023/04/14 12:36:39;;;;;;;;;;;11.60;56.90;;;;;;4055741;29;20119;-88
2023/04/14 12:39:02;;;;;;;;;;;11.70;56.80;;;;;;4046504;29;20499;-88
2023/04/14 12:41:25;;;;;;;;;;;11.70;56.40;;;;;;4057459;29;19911;-88
2023/04/14 12:44:04;;;;;;;;;;;11.70;56.60;;;;;;4063612;29;20230;-90
2023/04/14 12:46:26;;;;;;;;;;;11.80;56.10;;;;;;4055998;29;19921;-88
2023/04/14 12:48:47;;;;;;;;;;;11.70;53.30;;;;;;4058532;29;19919;-88
2023/04/14 12:51:12;;;;;;;;;;;11.70;53.90;;;;;;4061468;29;19923;-87
2023/04/14 12:53:33;;;;;;;;;;;11.80;53.30;;;;;;4071080;29;19973;-88
2023/04/14 12:56:07;;;;;;;;;;;11.80;52.20;;;;;;4061293;29;20357;-88
2023/04/14 12:58:30;;;;;;;;;;;11.80;53.30;;;;;;4071014;29;19957;-88
2023/04/14 13:01:12;;;;;;;;;;;11.90;52.00;;;;;;4066196;29;19903;-87
2023/04/14 13:03:45;;;;;;;;;;;11.90;52.20;;;;;;4060264;29;20014;-87
2023/04/14 13:05:56;;;;;;;;;;;11.90;52.10;;;;;;4065970;29;19918;-88
2023/04/14 13:08:01;;;;;;;;;;;11.90;52.30;;;;;;4054366;29;20074;-90
2023/04/14 13:10:02;;;;;;;;;;;12.00;52.50;;;;;;4069083;29;19937;-88
2023/04/14 13:12:26;;;;;;;;;;;12.00;52.70;;;;;;4072379;29;20005;-89
2023/04/14 13:14:56;;;;;;;;;;;12.00;53.30;;;;;;4068167;29;19915;-88
2023/04/14 13:16:57;;;;;;;;;;;12.00;52.80;;;;;;4074088;29;19907;-89
2023/04/14 13:19:17;;;;;;;;;;;12.00;52.80;;;;;;4067788;29;19953;-90
2023/04/14 13:21:39;;;;;;;;;;;12.10;53.10;;;;;;4064859;29;20472;-89
2023/04/14 13:24:20;;;;;;;;;;;12.20;54.30;;;;;;4063101;29;20300;-87
2023/04/14 13:26:59;;;;;;;;;;;12.00;54.50;;;;;;4066374;29;20015;-88
2023/04/14 13:29:20;;;;;;;;;;;12.10;53.80;;;;;;4066013;29;20341;-89
2023/04/14 13:31:53;;;;;;;;;;;12.10;53.70;;;;;;4066396;29;19915;-89
2023/04/14 13:34:13;;;;;;;;;;;12.20;54.70;;;;;;4093010;29;19993;-91
2023/04/14 13:36:34;;;;;;;;;;;12.10;55.10;;;;;;4087853;28;19918;-92
2023/04/14 13:39:01;;;;;;;;;;;12.00;54.60;;;;;;4070027;29;19920;-89
2023/04/14 13:41:28;;;;;;;;;;;12.20;54.90;;;;;;4071901;29;19965;-88